Duncan, West Virginia
Current Conditions -  °F | °C
As of 11:53 PM on Tuesday 21 Oct 2014 (Local Time) from KPKB Reporting Station
Overcast Overcast  
Wind Chill: 44°   Ceiling: 1700
Heat Index: 47°   Visibility: 10mi
Dew Point: 41°   Wind: 7mph
Humidity: 80%   Direction: 310°NW
Pressure: 30.12"   Gusts: NA
Location:  38.9557°N, 81.5714°W
Report Text: KPKB 220353Z AUTO 31006KT 10SM OVC017 08/05 A3012 RMK AO2 SLP199 T00830050
Loading
Personal Weather Stations






























Interactive Weather Map
Tropical Storm Tracking
New forecast layout! Learn more

10-Day Weather Forecast

Advertisements
Track Severe Weather on mobile